createdAt,value
2018-05-12T00:02:03.861Z,6.68
2018-05-12T00:07:58.878Z,6.79
2018-05-12T00:13:53.848Z,7.79
2018-05-12T00:19:48.865Z,7.95
2018-05-12T00:25:43.840Z,9.76
2018-05-12T00:31:38.860Z,9.52
2018-05-12T00:37:33.899Z,10.52
2018-05-12T00:43:28.890Z,11.08
2018-05-12T00:49:23.893Z,10.67
2018-05-12T00:55:18.884Z,11.77
2018-05-12T01:01:13.844Z,11.49
2018-05-12T01:07:08.846Z,10.73
2018-05-12T01:13:03.854Z,11.96
2018-05-12T01:18:58.831Z,11.03
2018-05-12T01:24:53.861Z,10.12
2018-05-12T01:30:48.886Z,9.94
2018-05-12T01:36:43.885Z,11.8
2018-05-12T01:42:38.889Z,11.6
2018-05-12T01:48:33.875Z,11.36
2018-05-12T01:54:28.871Z,10.27
2018-05-12T02:00:23.854Z,10.79
2018-05-12T02:06:18.905Z,11.58
2018-05-12T02:12:13.860Z,10.62
2018-05-12T02:18:08.926Z,11.23
2018-05-12T02:24:03.891Z,12.48
2018-05-12T02:29:58.887Z,12.17
2018-05-12T02:35:53.873Z,10.61
2018-05-12T02:41:48.854Z,10.05
2018-05-12T02:47:43.879Z,10.68
2018-05-12T02:53:38.871Z,10.39
2018-05-12T02:59:33.850Z,11.03
2018-05-12T03:05:28.832Z,11.55
2018-05-12T03:11:23.890Z,11.93
2018-05-12T03:17:18.898Z,11.97
2018-05-12T03:23:13.867Z,11.14
2018-05-12T03:29:08.842Z,10.8
2018-05-12T03:35:03.897Z,10.67
2018-05-12T03:40:58.897Z,10.97
2018-05-12T03:46:53.828Z,10.4
2018-05-12T03:52:48.915Z,11.86
2018-05-12T03:58:43.863Z,10.37
2018-05-12T04:04:38.850Z,10.87
2018-05-12T04:10:33.862Z,11.84
2018-05-12T04:16:28.896Z,11.31
2018-05-12T04:22:23.880Z,10.97
2018-05-12T04:28:18.841Z,11.56
2018-05-12T04:34:13.846Z,11.82
2018-05-12T04:40:08.877Z,11.12
2018-05-12T04:46:03.864Z,12.34
2018-05-12T04:51:58.902Z,11.41
2018-05-12T04:57:53.911Z,12.87
2018-05-12T05:03:48.826Z,12.37
2018-05-12T05:09:43.834Z,11.75
2018-05-12T05:15:38.849Z,13.8
2018-05-12T05:21:33.891Z,15.61
2018-05-12T05:27:28.860Z,14.56
2018-05-12T05:33:23.881Z,16.7
2018-05-12T05:39:18.890Z,15.4
2018-05-12T05:45:13.833Z,16.92
2018-05-12T05:51:08.881Z,17.81
2018-05-12T05:57:03.857Z,14.71
2018-05-12T06:02:58.872Z,15.93
2018-05-12T06:08:53.855Z,14.57
2018-05-12T06:14:48.852Z,13.5
2018-05-12T06:20:43.895Z,14.16
2018-05-12T06:26:38.864Z,13.66
2018-05-12T06:32:33.858Z,14.95
2018-05-12T06:38:28.871Z,18.51
2018-05-12T06:44:23.850Z,16.54
2018-05-12T06:50:18.860Z,14.97
2018-05-12T06:56:13.871Z,16.56
2018-05-12T07:02:08.898Z,16.75
2018-05-12T07:08:03.881Z,16.28
2018-05-12T07:13:58.874Z,16.91
2018-05-12T07:19:53.833Z,18.1
2018-05-12T07:25:48.876Z,19.23
2018-05-12T07:31:43.878Z,18.72
2018-05-12T07:37:38.896Z,17.75
2018-05-12T07:43:33.851Z,16.69
2018-05-12T07:49:28.877Z,18.12
2018-05-12T07:55:23.868Z,17.93
2018-05-12T08:01:18.875Z,17.9
2018-05-12T08:07:13.859Z,16.18
2018-05-12T08:13:08.856Z,15.28
2018-05-12T08:19:03.877Z,14.44
2018-05-12T08:24:58.861Z,16.43
2018-05-12T08:30:53.862Z,14.71
2018-05-12T08:36:48.855Z,13.02
2018-05-12T08:42:43.853Z,14.62
2018-05-12T08:48:39.153Z,13.3
2018-05-12T08:54:33.862Z,14.64
2018-05-12T09:00:28.908Z,12.59
2018-05-12T09:06:23.909Z,11.4
2018-05-12T09:12:18.951Z,12.22
2018-05-12T09:18:13.869Z,11.67
2018-05-12T09:24:08.879Z,11.77
2018-05-12T09:30:03.876Z,10.92
2018-05-12T09:35:58.865Z,10.53
2018-05-12T09:41:53.919Z,9.8
2018-05-12T09:47:48.915Z,9.56
2018-05-12T09:53:43.876Z,8.53
2018-05-12T09:59:38.923Z,8.43
2018-05-12T10:05:33.898Z,8.72
2018-05-12T10:11:28.869Z,8.38
2018-05-12T10:17:23.906Z,8.21
2018-05-12T10:23:18.894Z,7.39
2018-05-12T10:29:13.877Z,8.42
2018-05-12T10:35:08.885Z,6.81
2018-05-12T10:41:03.845Z,6.47
2018-05-12T10:46:58.906Z,6.93
2018-05-12T10:52:53.870Z,8.45
2018-05-12T10:58:48.900Z,8.79
2018-05-12T11:04:43.854Z,8.99
2018-05-12T11:10:38.889Z,9.12
2018-05-12T11:16:33.865Z,9.18
2018-05-12T11:22:28.887Z,8.65
2018-05-12T11:28:23.886Z,8.06
2018-05-12T11:34:18.866Z,8.61
2018-05-12T11:40:13.876Z,8.57
2018-05-12T11:46:08.899Z,8.53
2018-05-12T11:52:03.913Z,9.39
2018-05-12T11:57:58.915Z,9.62
2018-05-12T12:03:53.892Z,9.47
2018-05-12T12:09:48.881Z,9.01
2018-05-12T12:15:43.943Z,8.43
2018-05-12T12:21:38.911Z,7.46
2018-05-12T12:27:33.902Z,6.98
2018-05-12T12:33:28.908Z,7.67
2018-05-12T12:39:23.936Z,6.81
2018-05-12T12:45:18.919Z,6.69
2018-05-12T13:08:58.975Z,6.65
2018-05-12T13:08:59.646Z,6.91
2018-05-12T13:08:59.657Z,6.91
2018-05-12T13:08:59.718Z,6.91
2018-05-12T13:14:53.913Z,6.99
2018-05-12T13:20:48.946Z,6.97
2018-05-12T13:26:44.000Z,7.48
2018-05-12T13:32:38.915Z,6.38
2018-05-12T13:38:33.944Z,7.02
2018-05-12T13:44:28.952Z,6.73
2018-05-12T13:50:23.914Z,6.5
2018-05-12T14:02:13.986Z,6.67
2018-05-12T14:02:13.988Z,6.46
2018-05-12T14:08:08.930Z,7.11
2018-05-12T14:14:03.972Z,6.62
2018-05-12T14:19:58.964Z,5.75
2018-05-12T14:25:53.983Z,5.65
2018-05-12T14:31:48.956Z,5.69
2018-05-12T14:37:43.961Z,5.62
2018-05-12T14:43:38.997Z,5.27
2018-05-12T14:49:34.001Z,5.19
2018-05-12T14:55:28.941Z,5.42
2018-05-12T15:01:23.970Z,5.16
2018-05-12T15:07:18.992Z,4.62
2018-05-12T15:13:14.011Z,4.67
2018-05-12T15:19:08.959Z,4.36
2018-05-12T15:25:04.063Z,5.12
2018-05-12T15:30:59.027Z,5.14
2018-05-12T15:36:53.988Z,4.79
2018-05-12T15:42:49.031Z,4.8
2018-05-12T15:48:44.025Z,4.99
2018-05-12T15:54:39.007Z,4.9
2018-05-12T16:00:34.021Z,4.78
2018-05-12T16:06:29.023Z,6.19
2018-05-12T16:12:24.043Z,5.54
2018-05-12T16:18:19.016Z,4.36
2018-05-12T16:24:14.003Z,4.93
2018-05-12T16:30:08.972Z,4.26
2018-05-12T16:36:04.061Z,4.71
2018-05-12T16:41:58.979Z,4.31
2018-05-12T16:47:54.013Z,4.7
2018-05-12T16:53:48.993Z,4.15
2018-05-12T16:59:44.037Z,4.26
2018-05-12T17:05:39.029Z,4.78
2018-05-12T17:11:34.060Z,4.31
2018-05-12T17:17:29.039Z,4.97
2018-05-12T17:23:24.116Z,5.04
2018-05-12T17:29:19.017Z,12.21
2018-05-12T17:35:14.027Z,11.89
2018-05-12T17:41:09.030Z,6.63
2018-05-12T17:47:04.027Z,4.99
2018-05-12T17:52:59.014Z,4.92
2018-05-12T17:58:54.025Z,4.95
2018-05-12T18:04:49.018Z,6.8
2018-05-12T18:10:44.037Z,8.11
2018-05-12T18:16:39.012Z,8.4
2018-05-12T18:22:34.041Z,5.84
2018-05-12T18:28:29.111Z,5.31
2018-05-12T18:34:24.122Z,5.46
2018-05-12T18:40:19.085Z,5.29
2018-05-12T18:46:14.057Z,8.69
2018-05-12T18:52:09.083Z,6.02
2018-05-12T18:58:04.064Z,5.97
2018-05-12T19:03:59.098Z,5.53
2018-05-12T19:09:54.069Z,5.98
2018-05-12T19:15:49.066Z,5.97
2018-05-12T19:21:44.064Z,6.89
2018-05-12T19:27:39.105Z,5.2
2018-05-12T19:33:34.090Z,5.81
2018-05-12T19:39:29.097Z,5.06
2018-05-12T19:45:24.040Z,5.3
2018-05-12T19:51:19.052Z,4.98
2018-05-12T19:57:14.042Z,5.15
2018-05-12T20:03:09.091Z,5.14
2018-05-12T20:09:04.053Z,5.4
2018-05-12T20:14:59.068Z,5.59
2018-05-12T20:20:54.049Z,6.9
2018-05-12T20:26:49.051Z,6.75
2018-05-12T20:32:44.051Z,6.15
2018-05-12T20:38:39.050Z,5.89
2018-05-12T20:44:34.060Z,8.3
2018-05-12T20:50:29.066Z,14.86
2018-05-12T20:56:24.101Z,17.32
2018-05-12T21:02:19.116Z,12.63
2018-05-12T21:08:14.088Z,13.1
2018-05-12T21:14:09.077Z,10.37
2018-05-12T21:20:04.078Z,9.28
2018-05-12T21:25:59.073Z,9.96
2018-05-12T21:31:54.100Z,12.91
2018-05-12T21:37:49.114Z,17.42
2018-05-12T21:43:44.061Z,15.82
2018-05-12T21:49:39.096Z,14.03
2018-05-12T21:55:34.100Z,13.92
2018-05-12T22:01:29.131Z,10.43
2018-05-12T22:07:24.095Z,7.8
2018-05-12T22:13:19.114Z,7.39
2018-05-12T22:19:14.121Z,6.61
2018-05-12T22:25:09.077Z,7.01
2018-05-12T22:31:04.067Z,6.29
2018-05-12T22:36:59.086Z,7.13
2018-05-12T22:42:54.111Z,7.57
2018-05-12T22:48:49.107Z,9.34
2018-05-12T22:54:44.077Z,7.57
2018-05-12T23:00:39.106Z,8.03
2018-05-12T23:06:34.121Z,6.71
2018-05-12T23:12:29.087Z,7.65
2018-05-12T23:18:24.086Z,6.44
2018-05-12T23:24:19.110Z,6.41
2018-05-12T23:30:14.088Z,6.23
2018-05-12T23:36:09.112Z,6.78
2018-05-12T23:42:04.099Z,6.62
2018-05-12T23:47:59.094Z,6.72
2018-05-12T23:53:54.169Z,6.1
2018-05-12T23:59:49.102Z,5.93
